sensor_id;sensor_type;location;lat;lon;timestamp;P1;durP1;ratioP1;P2;durP2;ratioP2
75340;SDS011;64931;47.562;18.920;2023-03-11T00:00:22;1.50;;;0.40;;
75340;SDS011;64931;47.562;18.920;2023-03-11T00:02:50;0.60;;;0.40;;
75340;SDS011;64931;47.562;18.920;2023-03-11T00:05:24;1.30;;;0.50;;
75340;SDS011;64931;47.562;18.920;2023-03-11T00:07:51;1.80;;;0.60;;
75340;SDS011;64931;47.562;18.920;2023-03-11T00:10:19;1.50;;;0.50;;
75340;SDS011;64931;47.562;18.920;2023-03-11T00:12:46;1.10;;;0.60;;
75340;SDS011;64931;47.562;18.920;2023-03-11T00:15:12;1.40;;;0.50;;
75340;SDS011;64931;47.562;18.920;2023-03-11T00:17:37;1.40;;;0.60;;
75340;SDS011;64931;47.562;18.920;2023-03-11T00:20:04;1.40;;;0.50;;
75340;SDS011;64931;47.562;18.920;2023-03-11T00:22:31;1.80;;;0.60;;
75340;SDS011;64931;47.562;18.920;2023-03-11T00:24:57;1.80;;;0.50;;
75340;SDS011;64931;47.562;18.920;2023-03-11T00:27:22;0.90;;;0.50;;
75340;SDS011;64931;47.562;18.920;2023-03-11T00:29:48;1.80;;;0.70;;
75340;SDS011;64931;47.562;18.920;2023-03-11T00:32:13;1.30;;;0.60;;
75340;SDS011;64931;47.562;18.920;2023-03-11T00:34:38;1.00;;;0.50;;
75340;SDS011;64931;47.562;18.920;2023-03-11T00:37:04;2.80;;;0.60;;
75340;SDS011;64931;47.562;18.920;2023-03-11T00:39:29;2.00;;;0.50;;
75340;SDS011;64931;47.562;18.920;2023-03-11T00:41:54;1.40;;;0.50;;
75340;SDS011;64931;47.562;18.920;2023-03-11T00:44:21;1.00;;;0.60;;
75340;SDS011;64931;47.562;18.920;2023-03-11T00:46:46;1.50;;;0.50;;
75340;SDS011;64931;47.562;18.920;2023-03-11T00:49:12;1.40;;;0.60;;
75340;SDS011;64931;47.562;18.920;2023-03-11T00:51:37;1.50;;;0.60;;
75340;SDS011;64931;47.562;18.920;2023-03-11T00:54:03;2.20;;;0.60;;
75340;SDS011;64931;47.562;18.920;2023-03-11T00:56:28;1.70;;;0.60;;
75340;SDS011;64931;47.562;18.920;2023-03-11T00:58:55;1.90;;;0.70;;
75340;SDS011;64931;47.562;18.920;2023-03-11T01:01:20;1.20;;;0.60;;
75340;SDS011;64931;47.562;18.920;2023-03-11T01:03:46;2.20;;;0.60;;
75340;SDS011;64931;47.562;18.920;2023-03-11T01:06:12;1.90;;;0.70;;
75340;SDS011;64931;47.562;18.920;2023-03-11T01:08:38;1.60;;;0.60;;
75340;SDS011;64931;47.562;18.920;2023-03-11T01:11:04;1.50;;;0.50;;
75340;SDS011;64931;47.562;18.920;2023-03-11T01:13:30;1.80;;;0.70;;
75340;SDS011;64931;47.562;18.920;2023-03-11T01:15:56;3.20;;;0.70;;
75340;SDS011;64931;47.562;18.920;2023-03-11T01:18:22;1.50;;;0.60;;
75340;SDS011;64931;47.562;18.920;2023-03-11T01:20:48;2.10;;;0.80;;
75340;SDS011;64931;47.562;18.920;2023-03-11T01:23:14;2.20;;;0.70;;
75340;SDS011;64931;47.562;18.920;2023-03-11T01:25:40;1.80;;;0.70;;
75340;SDS011;64931;47.562;18.920;2023-03-11T01:28:06;2.50;;;1.30;;
75340;SDS011;64931;47.562;18.920;2023-03-11T01:30:32;2.50;;;0.80;;
75340;SDS011;64931;47.562;18.920;2023-03-11T01:32:58;3.60;;;0.70;;
75340;SDS011;64931;47.562;18.920;2023-03-11T01:35:25;2.00;;;0.70;;
75340;SDS011;64931;47.562;18.920;2023-03-11T01:37:51;2.00;;;0.80;;
75340;SDS011;64931;47.562;18.920;2023-03-11T01:40:19;1.60;;;0.80;;
75340;SDS011;64931;47.562;18.920;2023-03-11T01:42:48;1.50;;;0.80;;
75340;SDS011;64931;47.562;18.920;2023-03-11T01:47:58;1.90;;;0.70;;
75340;SDS011;64931;47.562;18.920;2023-03-11T01:50:24;2.40;;;1.10;;
75340;SDS011;64931;47.562;18.920;2023-03-11T01:52:51;2.30;;;0.80;;
75340;SDS011;64931;47.562;18.920;2023-03-11T01:55:17;3.10;;;1.00;;
75340;SDS011;64931;47.562;18.920;2023-03-11T01:57:43;1.70;;;0.80;;
75340;SDS011;64931;47.562;18.920;2023-03-11T02:00:12;2.10;;;0.80;;
75340;SDS011;64931;47.562;18.920;2023-03-11T02:02:45;2.10;;;0.80;;
75340;SDS011;64931;47.562;18.920;2023-03-11T02:05:11;3.20;;;0.90;;
75340;SDS011;64931;47.562;18.920;2023-03-11T02:07:37;2.30;;;0.80;;
75340;SDS011;64931;47.562;18.920;2023-03-11T02:10:04;1.90;;;0.90;;
75340;SDS011;64931;47.562;18.920;2023-03-11T02:12:32;2.80;;;0.60;;
75340;SDS011;64931;47.562;18.920;2023-03-11T02:14:59;4.50;;;0.70;;
75340;SDS011;64931;47.562;18.920;2023-03-11T02:17:26;2.10;;;0.90;;
75340;SDS011;64931;47.562;18.920;2023-03-11T02:22:26;3.20;;;0.80;;
75340;SDS011;64931;47.562;18.920;2023-03-11T02:25:31;2.00;;;0.80;;
75340;SDS011;64931;47.562;18.920;2023-03-11T02:27:58;2.50;;;0.90;;
75340;SDS011;64931;47.562;18.920;2023-03-11T02:30:23;2.90;;;0.90;;
75340;SDS011;64931;47.562;18.920;2023-03-11T02:32:50;1.50;;;0.70;;
75340;SDS011;64931;47.562;18.920;2023-03-11T02:35:15;3.00;;;0.80;;
75340;SDS011;64931;47.562;18.920;2023-03-11T02:37:49;3.30;;;1.00;;
75340;SDS011;64931;47.562;18.920;2023-03-11T02:42:47;2.80;;;1.00;;
75340;SDS011;64931;47.562;18.920;2023-03-11T02:45:15;2.10;;;0.90;;
75340;SDS011;64931;47.562;18.920;2023-03-11T02:47:42;2.60;;;0.90;;
75340;SDS011;64931;47.562;18.920;2023-03-11T02:50:08;2.10;;;0.70;;
75340;SDS011;64931;47.562;18.920;2023-03-11T02:52:36;2.50;;;0.90;;
75340;SDS011;64931;47.562;18.920;2023-03-11T02:55:01;2.00;;;0.70;;
75340;SDS011;64931;47.562;18.920;2023-03-11T02:57:27;2.50;;;0.80;;
75340;SDS011;64931;47.562;18.920;2023-03-11T02:59:53;2.80;;;0.90;;
75340;SDS011;64931;47.562;18.920;2023-03-11T03:02:18;3.30;;;0.90;;
75340;SDS011;64931;47.562;18.920;2023-03-11T03:04:44;4.10;;;0.90;;
75340;SDS011;64931;47.562;18.920;2023-03-11T03:07:09;2.00;;;0.80;;
75340;SDS011;64931;47.562;18.920;2023-03-11T03:09:35;3.00;;;0.70;;
75340;SDS011;64931;47.562;18.920;2023-03-11T03:12:01;5.70;;;0.90;;
75340;SDS011;64931;47.562;18.920;2023-03-11T03:14:27;2.80;;;0.90;;
75340;SDS011;64931;47.562;18.920;2023-03-11T03:16:52;2.20;;;0.80;;
75340;SDS011;64931;47.562;18.920;2023-03-11T03:19:18;2.30;;;0.90;;
75340;SDS011;64931;47.562;18.920;2023-03-11T03:21:43;4.30;;;1.00;;
75340;SDS011;64931;47.562;18.920;2023-03-11T03:24:09;2.90;;;0.80;;
75340;SDS011;64931;47.562;18.920;2023-03-11T03:26:35;1.80;;;0.80;;
75340;SDS011;64931;47.562;18.920;2023-03-11T03:29:01;3.50;;;0.80;;
75340;SDS011;64931;47.562;18.920;2023-03-11T03:31:27;2.70;;;0.80;;
75340;SDS011;64931;47.562;18.920;2023-03-11T03:33:52;2.50;;;0.70;;
75340;SDS011;64931;47.562;18.920;2023-03-11T03:36:17;2.30;;;0.70;;
75340;SDS011;64931;47.562;18.920;2023-03-11T03:38:43;3.30;;;0.70;;
75340;SDS011;64931;47.562;18.920;2023-03-11T03:41:08;2.40;;;0.70;;
75340;SDS011;64931;47.562;18.920;2023-03-11T03:43:34;5.60;;;0.70;;
75340;SDS011;64931;47.562;18.920;2023-03-11T03:46:00;2.80;;;0.70;;
75340;SDS011;64931;47.562;18.920;2023-03-11T03:48:27;2.70;;;0.80;;
75340;SDS011;64931;47.562;18.920;2023-03-11T03:50:53;2.30;;;0.80;;
75340;SDS011;64931;47.562;18.920;2023-03-11T03:53:19;1.10;;;0.50;;
75340;SDS011;64931;47.562;18.920;2023-03-11T03:55:44;1.80;;;0.60;;
75340;SDS011;64931;47.562;18.920;2023-03-11T03:58:10;2.70;;;0.80;;
75340;SDS011;64931;47.562;18.920;2023-03-11T04:00:35;4.20;;;0.80;;
75340;SDS011;64931;47.562;18.920;2023-03-11T04:03:01;1.70;;;0.70;;
75340;SDS011;64931;47.562;18.920;2023-03-11T04:05:27;2.40;;;0.80;;
75340;SDS011;64931;47.562;18.920;2023-03-11T04:07:53;1.90;;;0.60;;
75340;SDS011;64931;47.562;18.920;2023-03-11T04:10:18;2.70;;;1.00;;
75340;SDS011;64931;47.562;18.920;2023-03-11T04:12:44;2.40;;;1.00;;
75340;SDS011;64931;47.562;18.920;2023-03-11T04:15:10;2.70;;;0.90;;
75340;SDS011;64931;47.562;18.920;2023-03-11T04:17:36;4.30;;;1.00;;
75340;SDS011;64931;47.562;18.920;2023-03-11T04:20:02;1.60;;;0.70;;
75340;SDS011;64931;47.562;18.920;2023-03-11T04:22:31;2.60;;;0.80;;
75340;SDS011;64931;47.562;18.920;2023-03-11T04:24:56;4.80;;;0.80;;
75340;SDS011;64931;47.562;18.920;2023-03-11T04:27:22;2.20;;;0.80;;
75340;SDS011;64931;47.562;18.920;2023-03-11T04:29:47;3.60;;;0.90;;
75340;SDS011;64931;47.562;18.920;2023-03-11T04:32:12;2.70;;;0.80;;
75340;SDS011;64931;47.562;18.920;2023-03-11T04:34:38;5.40;;;0.90;;
75340;SDS011;64931;47.562;18.920;2023-03-11T04:37:03;8.30;;;0.80;;
75340;SDS011;64931;47.562;18.920;2023-03-11T04:39:29;11.10;;;1.00;;
75340;SDS011;64931;47.562;18.920;2023-03-11T04:41:55;18.30;;;1.20;;
75340;SDS011;64931;47.562;18.920;2023-03-11T04:44:21;23.20;;;1.90;;
75340;SDS011;64931;47.562;18.920;2023-03-11T04:46:46;31.20;;;2.60;;
75340;SDS011;64931;47.562;18.920;2023-03-11T04:49:11;40.10;;;3.20;;
75340;SDS011;64931;47.562;18.920;2023-03-11T04:51:37;34.50;;;2.00;;
75340;SDS011;64931;47.562;18.920;2023-03-11T04:54:03;32.20;;;2.00;;
75340;SDS011;64931;47.562;18.920;2023-03-11T04:56:28;34.50;;;2.50;;
75340;SDS011;64931;47.562;18.920;2023-03-11T04:58:54;26.80;;;2.70;;
75340;SDS011;64931;47.562;18.920;2023-03-11T05:01:19;41.80;;;2.60;;
75340;SDS011;64931;47.562;18.920;2023-03-11T05:03:44;29.20;;;2.00;;
75340;SDS011;64931;47.562;18.920;2023-03-11T05:06:10;26.50;;;2.80;;
75340;SDS011;64931;47.562;18.920;2023-03-11T05:08:35;22.00;;;2.40;;
75340;SDS011;64931;47.562;18.920;2023-03-11T05:11:01;33.90;;;2.30;;
75340;SDS011;64931;47.562;18.920;2023-03-11T05:13:26;13.50;;;1.50;;
75340;SDS011;64931;47.562;18.920;2023-03-11T05:15:52;27.30;;;2.30;;
75340;SDS011;64931;47.562;18.920;2023-03-11T05:18:17;30.20;;;2.60;;
75340;SDS011;64931;47.562;18.920;2023-03-11T05:20:43;23.20;;;1.70;;
75340;SDS011;64931;47.562;18.920;2023-03-11T05:23:08;17.20;;;1.70;;
75340;SDS011;64931;47.562;18.920;2023-03-11T05:25:33;24.20;;;2.20;;
75340;SDS011;64931;47.562;18.920;2023-03-11T05:27:59;20.30;;;2.10;;
75340;SDS011;64931;47.562;18.920;2023-03-11T05:30:25;17.10;;;1.60;;
75340;SDS011;64931;47.562;18.920;2023-03-11T05:32:50;21.60;;;1.70;;
75340;SDS011;64931;47.562;18.920;2023-03-11T05:35:16;20.30;;;1.90;;
75340;SDS011;64931;47.562;18.920;2023-03-11T05:37:41;24.00;;;2.00;;
75340;SDS011;64931;47.562;18.920;2023-03-11T05:40:08;19.50;;;2.10;;
75340;SDS011;64931;47.562;18.920;2023-03-11T05:45:00;19.90;;;2.30;;
75340;SDS011;64931;47.562;18.920;2023-03-11T05:47:26;25.20;;;2.00;;
75340;SDS011;64931;47.562;18.920;2023-03-11T05:49:51;17.20;;;1.90;;
75340;SDS011;64931;47.562;18.920;2023-03-11T05:52:17;16.40;;;1.60;;
75340;SDS011;64931;47.562;18.920;2023-03-11T05:54:42;12.70;;;1.40;;
75340;SDS011;64931;47.562;18.920;2023-03-11T05:57:07;13.90;;;1.70;;
75340;SDS011;64931;47.562;18.920;2023-03-11T05:59:33;8.40;;;1.80;;
75340;SDS011;64931;47.562;18.920;2023-03-11T06:01:59;4.00;;;0.90;;
75340;SDS011;64931;47.562;18.920;2023-03-11T06:04:26;13.30;;;1.20;;
75340;SDS011;64931;47.562;18.920;2023-03-11T06:06:51;7.10;;;1.20;;
75340;SDS011;64931;47.562;18.920;2023-03-11T06:09:17;9.90;;;0.90;;
75340;SDS011;64931;47.562;18.920;2023-03-11T06:11:42;4.50;;;1.20;;
75340;SDS011;64931;47.562;18.920;2023-03-11T06:14:09;10.50;;;1.50;;
75340;SDS011;64931;47.562;18.920;2023-03-11T06:16:37;4.50;;;1.10;;
75340;SDS011;64931;47.562;18.920;2023-03-11T06:19:03;9.90;;;1.30;;
75340;SDS011;64931;47.562;18.920;2023-03-11T06:21:28;9.30;;;1.20;;
75340;SDS011;64931;47.562;18.920;2023-03-11T06:23:54;7.40;;;1.30;;
75340;SDS011;64931;47.562;18.920;2023-03-11T06:26:20;6.10;;;1.50;;
75340;SDS011;64931;47.562;18.920;2023-03-11T06:28:46;6.90;;;1.60;;
75340;SDS011;64931;47.562;18.920;2023-03-11T06:31:16;5.00;;;1.30;;
75340;SDS011;64931;47.562;18.920;2023-03-11T06:33:52;4.00;;;1.20;;
75340;SDS011;64931;47.562;18.920;2023-03-11T06:36:20;6.30;;;1.10;;
75340;SDS011;64931;47.562;18.920;2023-03-11T06:38:46;5.60;;;1.00;;
75340;SDS011;64931;47.562;18.920;2023-03-11T06:41:12;5.10;;;1.70;;
75340;SDS011;64931;47.562;18.920;2023-03-11T06:43:38;3.10;;;1.20;;
75340;SDS011;64931;47.562;18.920;2023-03-11T06:46:10;3.30;;;1.10;;
75340;SDS011;64931;47.562;18.920;2023-03-11T06:48:37;3.60;;;1.20;;
75340;SDS011;64931;47.562;18.920;2023-03-11T06:51:03;2.70;;;1.10;;
75340;SDS011;64931;47.562;18.920;2023-03-11T06:53:28;2.10;;;0.90;;
75340;SDS011;64931;47.562;18.920;2023-03-11T06:55:58;3.30;;;1.20;;
75340;SDS011;64931;47.562;18.920;2023-03-11T06:58:32;4.20;;;1.10;;
75340;SDS011;64931;47.562;18.920;2023-03-11T07:00:59;4.20;;;1.00;;
75340;SDS011;64931;47.562;18.920;2023-03-11T07:03:25;3.60;;;1.00;;
75340;SDS011;64931;47.562;18.920;2023-03-11T07:05:51;1.60;;;0.70;;
75340;SDS011;64931;47.562;18.920;2023-03-11T07:08:16;2.90;;;1.10;;
75340;SDS011;64931;47.562;18.920;2023-03-11T07:10:42;4.90;;;1.00;;
75340;SDS011;64931;47.562;18.920;2023-03-11T07:13:07;2.60;;;1.00;;
75340;SDS011;64931;47.562;18.920;2023-03-11T07:15:32;1.80;;;0.80;;
75340;SDS011;64931;47.562;18.920;2023-03-11T07:17:58;7.10;;;1.00;;
75340;SDS011;64931;47.562;18.920;2023-03-11T07:20:23;2.20;;;0.90;;
75340;SDS011;64931;47.562;18.920;2023-03-11T07:22:49;3.00;;;1.00;;
75340;SDS011;64931;47.562;18.920;2023-03-11T07:25:14;2.10;;;0.80;;
